Time;durP1;ratioP1;P1;durP2;ratioP2;P2;SDS_P1;SDS_P2;PMS_P1;PMS_P2;Temp;Humidity;BMP_temperature;BMP_pressure;BME280_temperature;BME280_humidity;BME280_pressure;Samples;Min_cycle;Max_cycle;Signal;HPM_P1;HPM_P2
2021/08/02 00:00:27;;;;;;;2.47;1.40;;;;;;;14.04;91.52;100331.14;125271;1093;64272;-84
2021/08/02 00:03:03;;;;;;;3.37;0.87;;;;;;;14.03;92.19;100332.18;125508;1093;64291;-80
2021/08/02 00:05:35;;;;;;;4.00;1.30;;;;;;;14.04;92.05;100334.62;125409;1092;64310;-79
2021/08/02 00:08:03;;;;;;;4.40;1.13;;;;;;;14.03;91.92;100332.18;125256;1093;64277;-82
2021/08/02 00:10:33;;;;;;;3.73;1.13;;;;;;;14.04;91.49;100333.80;125180;1092;64272;-82
2021/08/02 00:13:08;;;;;;;3.90;1.47;;;;;;;14.04;90.88;100331.95;126367;1093;64221;-82
2021/08/02 00:15:36;;;;;;;2.37;0.90;;;;;;;14.03;90.89;100322.33;125109;1093;64381;-85
2021/08/02 00:18:04;;;;;;;4.00;0.83;;;;;;;14.00;90.67;100308.58;125286;1093;65467;-82
2021/08/02 00:20:35;;;;;;;3.13;1.00;;;;;;;13.98;90.63;100313.29;125209;1093;64307;-86
2021/08/02 00:23:06;;;;;;;2.90;0.93;;;;;;;13.95;91.04;100319.05;125415;1092;64240;-83
2021/08/02 00:25:34;;;;;;;2.80;1.00;;;;;;;13.90;90.84;100327.67;125274;1093;64272;-83
2021/08/02 00:28:03;;;;;;;5.87;1.40;;;;;;;13.87;90.81;100320.88;125190;1093;64272;-82
2021/08/02 00:30:32;;;;;;;5.83;1.27;;;;;;;13.83;91.06;100333.02;125075;1093;64320;-83
2021/08/02 00:33:00;;;;;;;3.87;1.27;;;;;;;13.80;91.91;100322.74;125456;1093;64176;-80
2021/08/02 00:35:32;;;;;;;3.67;1.90;;;;;;;13.76;92.13;100318.03;125444;1093;64187;-83
2021/08/02 00:37:59;;;;;;;6.05;1.30;;;;;;;13.72;91.92;100322.94;125287;1092;64307;-84
2021/08/02 00:40:48;;;;;;;3.20;1.30;;;;;;;13.71;92.12;100334.64;125186;1092;64965;-79
2021/08/02 00:43:43;;;;;;;2.57;1.20;;;;;;;13.69;92.02;100320.70;125130;1092;64329;-81
2021/08/02 00:46:13;;;;;;;3.23;1.07;;;;;;;13.67;92.04;100328.08;125307;1093;64157;-83
2021/08/02 00:48:58;;;;;;;3.25;1.25;;;;;;;13.64;92.61;100334.64;125467;1091;64284;-82
2021/08/02 00:51:27;;;;;;;3.55;1.50;;;;;;;13.61;92.64;100328.89;125307;1093;64246;-86
2021/08/02 00:53:59;;;;;;;2.20;1.20;;;;;;;13.59;93.05;100331.75;125299;1093;64226;-81
2021/08/02 00:56:32;;;;;;;2.90;1.40;;;;;;;13.56;92.82;100337.50;125144;1092;64409;-82
2021/08/02 00:59:04;;;;;;;3.93;1.37;;;;;;;13.51;93.75;100331.13;125147;1093;64288;-82
2021/08/02 01:01:36;;;;;;;3.37;1.47;;;;;;;13.47;93.64;100344.02;125384;1093;64279;-84
2021/08/02 01:04:04;;;;;;;3.10;1.30;;;;;;;13.43;94.92;100342.78;125154;1092;65239;-82
2021/08/02 01:06:33;;;;;;;3.70;1.10;;;;;;;13.39;94.89;100342.39;125251;1093;64310;-82
2021/08/02 01:09:03;;;;;;;2.67;1.10;;;;;;;13.37;95.14;100344.44;125308;1093;64291;-82
2021/08/02 01:11:34;;;;;;;6.57;1.83;;;;;;;13.36;94.93;100345.44;125074;1093;64220;-82
2021/08/02 01:14:06;;;;;;;3.87;1.70;;;;;;;13.34;95.12;100344.82;125535;1093;64287;-84
2021/08/02 01:16:38;;;;;;;3.07;1.07;;;;;;;13.34;95.31;100349.34;125179;1092;64275;-84
2021/08/02 01:19:08;;;;;;;4.77;1.83;;;;;;;13.34;95.35;100350.15;125536;1093;64310;-83
2021/08/02 01:21:40;;;;;;;2.90;1.40;;;;;;;13.32;95.34;100351.38;125390;1093;64356;-83
2021/08/02 01:24:13;;;;;;;4.20;1.57;;;;;;;13.32;95.38;100351.38;125342;1092;64236;-85
2021/08/02 01:26:43;;;;;;;3.43;1.60;;;;;;;13.31;95.45;100353.23;125277;1093;64218;-82
2021/08/02 01:29:48;;;;;;;5.73;1.70;;;;;;;13.31;95.35;100360.41;125532;1093;64169;-81
2021/08/02 01:32:17;;;;;;;3.10;1.40;;;;;;;13.28;95.47;100364.23;125434;1093;64195;-82
2021/08/02 01:34:45;;;;;;;2.27;1.47;;;;;;;13.26;95.24;100363.65;125561;1093;64275;-82
2021/08/02 01:37:13;;;;;;;3.33;1.23;;;;;;;13.24;96.03;100365.69;125114;1093;64317;-84
2021/08/02 01:39:52;;;;;;;3.43;1.53;;;;;;;13.23;95.84;100358.70;125228;1093;64288;-83
2021/08/02 01:42:19;;;;;;;4.05;1.85;;;;;;;13.20;95.26;100362.59;125355;1092;64249;-83
2021/08/02 01:44:46;;;;;;;9.80;2.23;;;;;;;13.18;95.36;100359.31;125177;1093;64355;-83
2021/08/02 01:47:37;;;;;;;5.57;2.10;;;;;;;13.15;95.78;100361.55;125405;1092;64371;-82
2021/08/02 01:50:19;;;;;;;3.20;2.00;;;;;;;13.13;95.69;100363.59;125066;1092;64886;-83
2021/08/02 01:53:13;;;;;;;3.20;1.43;;;;;;;13.10;95.81;100371.98;125260;1093;64268;-85
2021/08/02 01:55:46;;;;;;;2.90;1.20;;;;;;;13.05;96.25;100372.59;125141;1093;64265;-82
2021/08/02 01:58:16;;;;;;;3.03;1.23;;;;;;;13.01;96.89;100382.80;125168;1092;64377;-83
2021/08/02 02:00:47;;;;;;;4.07;1.77;;;;;;;12.99;96.09;100384.84;125262;1092;64311;-82
2021/08/02 02:03:22;;;;;;;2.20;1.30;;;;;;;12.96;97.04;100379.93;125279;1093;64353;-82
2021/08/02 02:05:52;;;;;;;;;;;;;;;12.94;96.91;100379.30;125320;1093;64289;-85
2021/08/02 02:08:23;;;;;;;2.93;1.40;;;;;;;12.93;96.75;100384.81;125327;1093;64160;-83
2021/08/02 02:10:55;;;;;;;6.87;1.70;;;;;;;12.89;96.68;100397.70;125252;1093;64253;-81
2021/08/02 02:13:32;;;;;;;3.93;1.40;;;;;;;12.88;96.55;100388.08;125463;1093;64342;-84
2021/08/02 02:16:02;;;;;;;2.60;1.60;;;;;;;12.81;96.19;100387.20;125275;1092;64178;-82
2021/08/02 02:18:34;;;;;;;2.90;1.50;;;;;;;12.84;96.36;100402.80;125314;1093;64240;-81
2021/08/02 02:21:04;;;;;;;5.47;2.27;;;;;;;12.81;95.69;100392.53;125321;1093;64272;-83
2021/08/02 02:23:31;;;;;;;2.83;1.60;;;;;;;12.79;95.26;100399.89;125187;1093;64370;-84
2021/08/02 02:26:01;;;;;;;5.53;1.40;;;;;;;12.75;95.45;100388.83;125334;1092;64180;-84
2021/08/02 02:28:29;;;;;;;2.53;1.10;;;;;;;12.74;95.61;100402.33;126866;1093;63651;-82
2021/08/02 02:30:58;;;;;;;3.07;1.77;;;;;;;12.70;95.95;100401.08;125353;1092;64298;-82
2021/08/02 02:33:30;;;;;;;7.10;1.85;;;;;;;12.69;95.46;100404.73;125329;1091;64192;-83
2021/08/02 02:35:58;;;;;;;2.30;1.40;;;;;;;12.66;95.43;100405.96;125358;1092;64249;-82
2021/08/02 02:38:25;;;;;;;2.90;1.27;;;;;;;12.63;94.94;100407.17;125235;1092;64198;-82
2021/08/02 02:40:53;;;;;;;6.20;1.90;;;;;;;12.61;95.66;100403.89;125349;1092;64260;-84
2021/08/02 02:43:21;;;;;;;4.23;1.60;;;;;;;12.58;95.74;100411.43;125688;1093;64390;-81
2021/08/02 02:45:50;;;;;;;5.80;1.65;;;;;;;12.54;95.92;100419.00;125468;1092;64773;-84
2021/08/02 02:48:18;;;;;;;5.77;1.77;;;;;;;12.51;95.71;100423.88;125173;1093;64288;-83
2021/08/02 02:50:49;;;;;;;5.43;1.60;;;;;;;12.47;96.16;100415.45;125196;1093;64195;-84
2021/08/02 02:53:18;;;;;;;5.27;1.80;;;;;;;12.43;96.58;100414.20;125288;1093;64211;-83
2021/08/02 02:55:47;;;;;;;4.77;1.90;;;;;;;12.38;96.21;100420.10;125353;1093;64294;-83
2021/08/02 02:58:15;;;;;;;2.20;1.40;;;;;;;12.35;96.69;100417.84;125541;1093;64198;-82
2021/08/02 03:00:44;;;;;;;5.53;1.60;;;;;;;12.32;96.73;100425.38;125466;1093;64285;-82
2021/08/02 03:03:16;;;;;;;5.57;1.90;;;;;;;12.29;97.06;100418.61;125168;1093;64805;-84
2021/08/02 03:05:45;;;;;;;2.97;1.70;;;;;;;12.26;97.40;100420.83;125336;1094;64304;-83
2021/08/02 03:08:15;;;;;;;3.03;1.60;;;;;;;12.23;97.21;100422.85;125133;1093;64288;-84
2021/08/02 03:10:43;;;;;;;4.40;2.00;;;;;;;12.21;96.67;100427.54;125220;1093;64246;-84
2021/08/02 03:13:11;;;;;;;3.40;1.30;;;;;;;12.21;97.75;100427.54;125265;1093;64375;-83
2021/08/02 03:15:38;;;;;;;2.93;1.70;;;;;;;12.19;97.38;100426.91;125153;1092;64327;-83
2021/08/02 03:18:06;;;;;;;3.53;1.30;;;;;;;12.18;97.20;100427.94;125419;1093;64248;-83
2021/08/02 03:20:33;;;;;;;5.33;1.80;;;;;;;12.18;97.38;100429.78;125133;1093;64298;-84
2021/08/02 03:23:11;;;;;;;4.33;1.90;;;;;;;12.17;97.57;100436.09;125306;1092;64342;-87
2021/08/02 03:25:51;;;;;;;3.00;1.60;;;;;;;12.16;97.56;100432.63;125421;1093;64195;-84
2021/08/02 03:28:37;;;;;;;6.37;2.10;;;;;;;12.16;97.03;100432.63;125537;1093;64451;-84
2021/08/02 03:31:09;;;;;;;3.57;1.30;;;;;;;12.15;97.09;100435.47;127692;1093;62964;-82
2021/08/02 03:33:40;;;;;;;5.70;1.87;;;;;;;12.13;97.21;100432.17;125364;1093;64284;-83
2021/08/02 03:36:13;;;;;;;5.93;1.47;;;;;;;12.12;96.92;100433.20;125408;1093;64227;-85
2021/08/02 03:38:43;;;;;;;4.47;1.30;;;;;;;12.11;96.94;100445.66;125268;1093;64298;-84
2021/08/02 03:41:11;;;;;;;2.73;1.67;;;;;;;12.08;96.74;100440.73;125219;1092;64346;-84
2021/08/02 03:43:40;;;;;;;2.80;1.60;;;;;;;12.06;96.88;100442.75;125197;1092;64204;-83
2021/08/02 03:46:09;;;;;;;6.20;1.37;;;;;;;12.04;97.45;100445.59;125266;1093;64278;-86
2021/08/02 03:48:37;;;;;;;4.53;1.73;;;;;;;12.04;96.97;100447.44;125187;1092;64269;-85
2021/08/02 03:51:05;;;;;;;4.37;1.70;;;;;;;12.02;96.68;100444.16;125211;1093;64919;-84
2021/08/02 03:53:43;;;;;;;8.50;2.53;;;;;;;12.02;96.70;100457.44;125189;1093;64271;-85
2021/08/02 03:56:15;;;;;;;3.80;2.17;;;;;;;12.01;96.66;100450.50;125130;1092;64272;-85
2021/08/02 03:58:42;;;;;;;4.77;1.67;;;;;;;12.02;96.46;100457.44;125262;1093;64271;-84
2021/08/02 04:01:11;;;;;;;3.57;1.40;;;;;;;12.01;96.21;100455.81;125228;1093;64245;-87
2021/08/02 04:03:41;;;;;;;7.97;1.63;;;;;;;12.02;96.20;100473.39;125601;1093;64294;-84
2021/08/02 04:06:10;;;;;;;3.27;1.40;;;;;;;12.00;96.14;100475.42;125335;1092;64404;-85
2021/08/02 04:08:37;;;;;;;4.37;1.80;;;;;;;12.01;96.21;100472.58;125547;1093;64371;-84
2021/08/02 04:11:08;;;;;;;3.93;1.77;;;;;;;12.03;95.88;100469.73;125264;1093;64288;-84
2021/08/02 04:13:35;;;;;;;5.83;1.70;;;;;;;12.04;95.83;100471.37;125431;1093;64207;-84
2021/08/02 04:16:02;;;;;;;5.77;2.47;;;;;;;12.04;95.61;100472.19;126756;1093;64186;-85
2021/08/02 04:18:31;;;;;;;4.77;1.17;;;;;;;12.06;95.35;100468.53;127191;1093;64335;-84
2021/08/02 04:20:59;;;;;;;3.63;1.23;;;;;;;12.06;95.30;100473.84;126816;1093;64192;-84
2021/08/02 04:23:26;;;;;;;6.73;1.73;;;;;;;12.06;94.73;100473.84;125612;1093;64195;-83
2021/08/02 04:25:53;;;;;;;2.30;1.40;;;;;;;12.07;94.81;100478.14;128710;1093;62684;-84
2021/08/02 04:28:20;;;;;;;4.40;1.50;;;;;;;12.09;94.76;100476.11;126630;1093;64195;-83
2021/08/02 04:30:48;;;;;;;3.23;1.47;;;;;;;12.11;94.61;100472.24;125201;1093;64406;-83
2021/08/02 04:33:15;;;;;;;3.40;1.40;;;;;;;12.13;94.30;100475.53;125557;1093;64220;-82
2021/08/02 04:35:42;;;;;;;3.25;1.20;;;;;;;12.16;94.18;100480.49;125256;1093;64451;-83
2021/08/02 04:38:09;;;;;;;4.27;1.30;;;;;;;12.20;94.15;100484.42;125226;1092;64257;-82
2021/08/02 04:40:36;;;;;;;5.90;1.30;;;;;;;12.23;93.81;100492.00;125248;1092;64275;-81
2021/08/02 04:43:04;;;;;;;3.17;1.50;;;;;;;12.28;93.76;100490.61;125182;1093;64744;-81
2021/08/02 04:45:31;;;;;;;5.03;1.47;;;;;;;12.32;93.58;100484.70;125185;1091;64224;-80
2021/08/02 04:47:58;;;;;;;4.73;1.60;;;;;;;12.37;93.19;100486.82;125313;1093;64249;-81
2021/08/02 04:50:25;;;;;;;5.80;1.20;;;;;;;12.41;92.96;100482.73;125195;1093;64670;-82
2021/08/02 04:52:52;;;;;;;4.80;1.50;;;;;;;12.46;92.68;100485.66;125270;1093;64198;-83
2021/08/02 04:55:19;;;;;;;5.10;1.50;;;;;;;12.50;92.42;100484.27;125395;1092;64427;-83
2021/08/02 04:57:46;;;;;;;2.70;1.13;;;;;;;12.55;92.17;100487.16;125460;1092;64275;-82
2021/08/02 05:00:17;;;;;;;4.80;1.20;;;;;;;12.62;91.96;100484.53;125200;1093;64243;-81
2021/08/02 05:02:44;;;;;;;4.17;1.20;;;;;;;12.69;91.61;100485.42;125119;1092;64277;-83
2021/08/02 05:05:13;;;;;;;8.00;1.30;;;;;;;12.76;91.45;100486.28;125291;1093;64285;-83
2021/08/02 05:07:40;;;;;;;6.00;1.70;;;;;;;12.81;90.83;100483.03;125357;1092;64748;-84
2021/08/02 05:10:08;;;;;;;2.13;1.07;;;;;;;12.85;90.08;100493.09;125295;1093;64285;-84
2021/08/02 05:12:35;;;;;;;5.33;1.47;;;;;;;12.94;90.11;100490.28;125209;1093;64276;-83
2021/08/02 05:15:11;;;;;;;3.55;0.75;;;;;;;13.00;89.52;100497.49;125553;1093;64272;-83
2021/08/02 05:17:39;;;;;;;3.20;1.10;;;;;;;13.05;88.84;100490.57;125252;1093;64245;-81
2021/08/02 05:20:07;;;;;;;2.90;1.37;;;;;;;13.15;88.24;100489.38;125181;1093;64387;-83
2021/08/02 05:22:35;;;;;;;4.50;1.20;;;;;;;13.22;88.21;100490.26;125356;1093;64297;-83
2021/08/02 05:25:04;;;;;;;4.83;1.40;;;;;;;13.26;87.76;100491.51;125262;1093;64328;-84
2021/08/02 05:27:31;;;;;;;3.53;1.03;;;;;;;13.34;86.92;100499.34;125077;1093;65014;-83
2021/08/02 05:29:58;;;;;;;2.30;1.00;;;;;;;13.40;85.73;100493.22;125264;1092;64329;-83
2021/08/02 05:32:25;;;;;;;5.33;1.13;;;;;;;13.47;85.65;100493.25;125246;1092;64358;-83
2021/08/02 05:34:55;;;;;;;2.77;1.10;;;;;;;13.53;85.32;100507.63;125367;1093;64277;-83
2021/08/02 05:37:22;;;;;;;4.93;1.13;;;;;;;13.60;85.29;100511.13;125285;1092;64295;-85
2021/08/02 05:39:49;;;;;;;4.43;0.90;;;;;;;13.60;84.28;100500.47;125195;1093;64278;-84
2021/08/02 05:42:16;;;;;;;5.73;0.90;;;;;;;13.66;84.60;100513.84;125181;1092;64352;-82
2021/08/02 05:44:44;;;;;;;2.33;0.73;;;;;;;13.70;84.46;100511.59;125156;1092;64279;-83
2021/08/02 05:47:14;;;;;;;3.83;1.10;;;;;;;13.81;84.68;100500.36;125441;1092;64285;-83
2021/08/02 05:49:41;;;;;;;2.47;0.93;;;;;;;13.93;84.16;100505.09;125460;1093;64271;-85
2021/08/02 05:52:08;;;;;;;4.00;1.17;;;;;;;14.01;83.49;100505.73;125401;1093;64294;-83
2021/08/02 05:54:35;;;;;;;7.60;1.40;;;;;;;14.10;83.31;100508.21;125197;1093;64995;-83
2021/08/02 05:57:02;;;;;;;2.10;0.90;;;;;;;14.17;82.98;100514.37;125178;1093;64393;-82
2021/08/02 05:59:29;;;;;;;2.00;0.77;;;;;;;14.17;81.91;100509.84;125344;1093;64208;-85
2021/08/02 06:01:59;;;;;;;1.10;0.60;;;;;;;14.25;81.51;100512.33;125616;1092;64368;-83
2021/08/02 06:04:27;;;;;;;1.23;0.57;;;;;;;14.33;80.88;100508.66;125859;1093;64364;-82
2021/08/02 06:06:54;;;;;;;1.67;0.90;;;;;;;14.41;80.73;100512.98;125928;1093;64233;-84
2021/08/02 06:09:22;;;;;;;4.13;1.10;;;;;;;14.49;80.92;100512.75;126323;1092;64288;-81
2021/08/02 06:11:50;;;;;;;1.10;0.60;;;;;;;14.55;80.02;100519.97;126364;1093;64294;-82
2021/08/02 06:14:17;;;;;;;1.63;0.60;;;;;;;14.65;79.90;100515.05;125599;1093;64281;-82
2021/08/02 06:16:44;;;;;;;4.27;0.90;;;;;;;14.76;80.45;100512.78;125538;1092;64288;-82
2021/08/02 06:19:12;;;;;;;2.03;0.90;;;;;;;14.86;78.81;100526.55;125240;1093;64268;-82
2021/08/02 06:21:39;;;;;;;2.57;0.70;;;;;;;14.92;78.01;100522.20;125281;1093;64310;-82
2021/08/02 06:24:06;;;;;;;1.93;0.80;;;;;;;14.99;78.09;100534.53;125402;1093;64313;-82
2021/08/02 06:26:33;;;;;;;2.73;0.50;;;;;;;15.03;77.42;100534.95;125282;1092;64274;-82
2021/08/02 06:29:00;;;;;;;1.57;0.80;;;;;;;15.11;76.92;100542.75;125220;1093;64263;-82
2021/08/02 06:31:27;;;;;;;3.87;0.90;;;;;;;15.18;76.82;100545.40;125151;1092;64284;-82
2021/08/02 06:33:55;;;;;;;2.60;0.90;;;;;;;15.19;76.22;100545.17;125129;1093;64226;-83
2021/08/02 06:36:22;;;;;;;4.20;0.90;;;;;;;15.20;76.35;100546.02;125444;1092;64217;-82
2021/08/02 06:38:49;;;;;;;3.43;0.90;;;;;;;15.21;75.26;100556.47;125317;1092;64288;-82
2021/08/02 06:41:16;;;;;;;11.43;1.30;;;;;;;15.32;75.27;100541.64;125385;1092;64361;-81
2021/08/02 06:43:43;;;;;;;2.17;0.67;;;;;;;15.47;74.87;100542.23;125247;1093;64241;-85
2021/08/02 06:46:11;;;;;;;1.70;0.50;;;;;;;15.61;74.53;100536.83;125202;1093;64279;-82
2021/08/02 06:48:40;;;;;;;1.23;0.63;;;;;;;15.69;73.87;100528.57;125394;1093;64269;-82
2021/08/02 06:51:10;;;;;;;1.67;0.60;;;;;;;15.76;74.04;100540.08;125299;1093;64368;-81
2021/08/02 06:53:38;;;;;;;5.00;0.70;;;;;;;15.83;73.02;100538.22;125342;1093;64277;-85
2021/08/02 06:56:06;;;;;;;2.43;0.80;;;;;;;15.96;71.86;100547.18;125184;1093;64288;-82
2021/08/02 06:58:34;;;;;;;2.67;0.60;;;;;;;16.08;71.21;100553.50;125200;1093;64332;-82
2021/08/02 07:01:01;;;;;;;1.50;0.50;;;;;;;16.12;70.33;100554.72;125478;1093;64729;-81
2021/08/02 07:03:29;;;;;;;2.63;0.70;;;;;;;16.21;70.33;100558.77;125225;1093;64286;-82
2021/08/02 07:05:57;;;;;;;2.67;0.73;;;;;;;16.23;70.33;100558.56;125312;1093;64284;-83
2021/08/02 07:08:24;;;;;;;3.87;0.70;;;;;;;16.31;70.38;100553.77;125165;1093;64196;-80
2021/08/02 07:10:54;;;;;;;2.50;0.60;;;;;;;16.43;69.92;100550.41;125174;1093;64332;-81
2021/08/02 07:13:21;;;;;;;3.57;0.80;;;;;;;16.43;70.16;100545.06;125438;1092;64288;-82
2021/08/02 07:15:49;;;;;;;3.73;0.80;;;;;;;16.33;69.99;100542.03;125339;1093;64288;-82
2021/08/02 07:18:18;;;;;;;3.83;1.40;;;;;;;16.41;70.12;100552.48;124992;1093;64195;-79
2021/08/02 07:20:48;;;;;;;1.83;0.50;;;;;;;16.46;69.68;100547.28;124940;1093;64269;-79
2021/08/02 07:23:16;;;;;;;1.27;0.50;;;;;;;16.50;68.48;100551.98;125327;1093;64505;-81
2021/08/02 07:25:43;;;;;;;1.60;0.83;;;;;;;16.51;68.61;100548.28;125053;1093;64364;-79
2021/08/02 07:28:10;;;;;;;1.70;0.67;;;;;;;16.58;69.00;100548.23;125194;1093;64270;-79
2021/08/02 07:30:38;;;;;;;3.77;1.43;;;;;;;16.66;68.54;100547.96;125314;1093;64998;-80
2021/08/02 07:33:05;;;;;;;2.37;0.70;;;;;;;16.64;68.19;100563.43;125144;1092;64253;-78
2021/08/02 07:35:32;;;;;;;3.30;0.60;;;;;;;16.62;69.09;100549.44;125096;1093;64688;-81
2021/08/02 07:38:00;;;;;;;3.43;1.23;;;;;;;16.66;68.71;100556.00;125227;1093;64253;-83
2021/08/02 07:40:27;;;;;;;3.80;0.53;;;;;;;16.80;67.95;100550.52;125518;1093;64195;-81
2021/08/02 07:42:55;;;;;;;3.07;0.70;;;;;;;16.80;66.27;100553.20;125333;1093;64313;-84
2021/08/02 07:45:22;;;;;;;2.27;0.53;;;;;;;16.89;65.85;100550.06;125401;1093;64310;-82
2021/08/02 07:47:49;;;;;;;1.90;0.57;;;;;;;17.01;66.53;100542.11;125592;1093;64299;-81
2021/08/02 07:50:16;;;;;;;4.67;1.03;;;;;;;17.17;64.88;100564.01;125343;1093;64631;-82
2021/08/02 07:52:44;;;;;;;3.43;0.80;;;;;;;17.24;64.02;100556.73;125223;1092;64298;-84
2021/08/02 07:55:13;;;;;;;3.43;0.83;;;;;;;17.23;64.21;100541.67;125133;1092;64332;-80
2021/08/02 07:57:41;;;;;;;2.80;0.80;;;;;;;17.35;63.86;100560.54;125276;1093;64267;-82
2021/08/02 08:00:11;;;;;;;3.70;0.70;;;;;;;17.46;63.93;100565.97;125126;1093;64403;-81
2021/08/02 08:02:38;;;;;;;2.80;1.03;;;;;;;17.48;62.76;100553.16;125173;1093;64314;-83
2021/08/02 08:05:06;;;;;;;3.53;0.80;;;;;;;17.60;62.78;100553.23;125645;1093;64234;-82
2021/08/02 08:07:52;;;;;;;2.30;0.60;;;;;;;17.76;61.78;100543.73;125702;1093;64297;-82
2021/08/02 08:10:22;;;;;;;5.30;1.10;;;;;;;17.82;61.39;100547.39;125718;1093;64295;-83
2021/08/02 08:12:51;;;;;;;2.10;0.70;;;;;;;17.92;60.94;100543.15;125330;1092;64256;-82
2021/08/02 08:15:21;;;;;;;2.00;0.83;;;;;;;18.10;60.94;100538.77;125301;1091;64387;-81
2021/08/02 08:17:49;;;;;;;2.73;0.80;;;;;;;18.17;61.99;100539.52;125326;1093;64368;-80
2021/08/02 08:20:19;;;;;;;1.83;0.60;;;;;;;18.13;59.61;100546.38;125314;1093;64198;-80
2021/08/02 08:22:47;;;;;;;3.23;0.70;;;;;;;18.02;60.39;100552.51;125483;1093;64293;-80
2021/08/02 08:25:15;;;;;;;9.80;1.13;;;;;;;17.87;61.41;100539.50;125152;1093;64396;-80
2021/08/02 08:27:42;;;;;;;1.53;0.63;;;;;;;17.80;61.06;100549.48;125027;1093;64311;-79
2021/08/02 08:30:11;;;;;;;3.17;0.80;;;;;;;17.67;60.63;100540.55;125221;1092;64291;-79
2021/08/02 08:32:39;;;;;;;4.30;0.80;;;;;;;17.66;60.93;100541.61;125135;1093;64268;-80
2021/08/02 08:35:07;;;;;;;4.60;0.80;;;;;;;17.82;61.44;100533.97;125234;1093;64224;-86
2021/08/02 08:37:36;;;;;;;2.83;0.77;;;;;;;17.90;59.98;100545.23;125274;1093;64326;-79
2021/08/02 08:40:05;;;;;;;2.95;0.50;;;;;;;18.04;58.90;100553.09;125279;1093;64257;-82
2021/08/02 08:42:33;;;;;;;1.67;0.80;;;;;;;18.11;58.44;100543.92;125267;1093;64368;-81
2021/08/02 08:45:01;;;;;;;4.40;1.07;;;;;;;18.21;58.52;100543.38;125428;1093;64221;-79
2021/08/02 08:47:28;;;;;;;5.43;0.70;;;;;;;18.09;58.46;100551.38;125242;1093;64198;-80
2021/08/02 08:49:55;;;;;;;4.43;0.90;;;;;;;18.11;59.61;100545.80;125270;1092;64288;-80
2021/08/02 08:52:22;;;;;;;4.67;0.87;;;;;;;18.07;57.64;100541.92;125348;1093;64205;-80
2021/08/02 08:54:49;;;;;;;4.50;1.30;;;;;;;18.02;58.41;100547.98;125138;1093;64311;-79
2021/08/02 08:57:16;;;;;;;5.00;0.93;;;;;;;17.90;59.58;100545.23;125116;1093;64259;-80
2021/08/02 08:59:52;;;;;;;2.67;0.67;;;;;;;17.87;60.07;100561.81;125326;1093;64285;-77
2021/08/02 09:02:29;;;;;;;3.53;0.90;;;;;;;17.91;60.97;100551.42;125492;1093;64241;-78
2021/08/02 09:05:00;;;;;;;4.10;0.95;;;;;;;17.90;60.65;100545.23;125263;1093;64259;-80
2021/08/02 09:07:35;;;;;;;4.13;1.20;;;;;;;18.13;59.54;100554.44;125346;1093;64195;-80
2021/08/02 09:10:09;;;;;;;3.23;0.70;;;;;;;18.42;59.66;100547.38;125117;1092;64199;-77
2021/08/02 09:12:47;;;;;;;4.95;0.90;;;;;;;18.45;57.17;100548.80;125681;1092;64294;-80
2021/08/02 09:15:14;;;;;;;5.07;0.90;;;;;;;18.41;55.56;100542.25;125362;1093;64392;-82
2021/08/02 09:17:41;;;;;;;3.07;0.60;;;;;;;18.39;55.64;100573.89;125333;1092;64218;-80
2021/08/02 09:20:22;;;;;;;5.07;0.50;;;;;;;18.36;54.35;100568.96;125110;1093;64291;-80
2021/08/02 09:22:51;;;;;;;2.70;0.63;;;;;;;18.27;54.81;100558.55;125312;1093;64227;-80
2021/08/02 09:25:25;;;;;;;4.45;0.80;;;;;;;18.20;55.69;100565.89;125528;1093;64301;-81
2021/08/02 09:27:52;;;;;;;2.70;0.77;;;;;;;18.11;56.00;100561.90;125079;1093;64305;-81
2021/08/02 09:30:27;;;;;;;3.35;0.70;;;;;;;18.08;56.09;100560.47;125259;1093;64371;-80
2021/08/02 09:33:02;;;;;;;2.20;1.10;;;;;;;18.07;56.44;100558.03;125309;1092;64297;-80
2021/08/02 09:35:42;;;;;;;3.48;0.55;;;;;;;18.12;56.98;100555.47;125659;1092;64291;-80
2021/08/02 09:38:12;;;;;;;2.73;0.53;;;;;;;18.17;56.45;100560.98;125244;1092;64272;-79
2021/08/02 09:40:43;;;;;;;3.03;0.87;;;;;;;18.15;56.04;100552.34;125164;1092;64367;-82
2021/08/02 09:43:13;;;;;;;2.83;0.90;;;;;;;18.15;56.28;100563.09;125126;1092;64254;-81
2021/08/02 09:46:02;;;;;;;5.10;1.27;;;;;;;18.45;56.37;100552.30;125225;1093;64246;-79
2021/08/02 09:48:41;;;;;;;2.70;0.80;;;;;;;18.77;55.20;100559.25;125245;1092;64958;-80
2021/08/02 09:51:14;;;;;;;7.60;1.23;;;;;;;19.03;54.62;100558.80;125061;1092;64839;-81
2021/08/02 09:53:44;;;;;;;1.83;0.70;;;;;;;19.35;54.24;100563.80;125802;1093;64195;-83
2021/08/02 09:56:16;;;;;;;3.93;0.70;;;;;;;19.70;53.51;100566.46;125417;1093;64331;-81
2021/08/02 09:59:07;;;;;;;2.07;0.70;;;;;;;19.92;52.58;100561.22;125314;1092;64285;-82
2021/08/02 10:01:34;;;;;;;2.63;0.70;;;;;;;20.07;52.50;100547.23;125127;1093;64220;-79
2021/08/02 10:04:03;;;;;;;1.57;0.70;;;;;;;20.01;51.09;100560.84;125318;1093;64186;-77
2021/08/02 10:06:32;;;;;;;1.63;0.40;;;;;;;19.95;51.01;100554.53;125543;1093;64291;-80
2021/08/02 10:09:00;;;;;;;3.90;0.70;;;;;;;19.75;51.30;100565.73;125535;1093;64215;-82
2021/08/02 10:11:30;;;;;;;3.50;0.60;;;;;;;19.61;50.92;100556.27;125562;1093;64269;-80
2021/08/02 10:13:58;;;;;;;1.63;0.70;;;;;;;19.46;48.73;100573.72;125630;1093;64242;-81
2021/08/02 10:16:28;;;;;;;2.23;0.60;;;;;;;19.36;50.01;100568.14;125291;1093;64214;-81
2021/08/02 10:19:07;;;;;;;2.23;0.60;;;;;;;19.19;51.06;100551.07;125681;1093;64288;-80
2021/08/02 10:21:40;;;;;;;3.20;0.65;;;;;;;19.13;52.38;100553.66;125269;1093;64290;-79
2021/08/02 10:24:14;;;;;;;3.50;0.70;;;;;;;19.02;52.16;100559.03;125211;1093;64390;-79
2021/08/02 10:26:56;;;;;;;1.50;0.60;;;;;;;18.86;51.97;100555.19;125479;1092;64192;-79
2021/08/02 10:29:24;;;;;;;4.03;0.70;;;;;;;18.74;52.70;100555.13;126229;1093;64272;-79
2021/08/02 10:31:53;;;;;;;5.30;0.80;;;;;;;18.66;54.47;100558.19;125160;1093;64275;-81
2021/08/02 10:34:24;;;;;;;1.10;0.60;;;;;;;18.56;55.07;100572.17;125446;1092;64257;-79
2021/08/02 10:37:03;;;;;;;2.33;0.80;;;;;;;18.41;55.11;100572.61;125526;1093;64196;-82
2021/08/02 10:39:33;;;;;;;3.30;0.50;;;;;;;18.28;55.88;100576.31;125909;1093;64368;-79
2021/08/02 10:42:18;;;;;;;2.90;0.60;;;;;;;18.36;56.18;100575.17;125843;1093;65203;-82
2021/08/02 10:45:00;;;;;;;2.33;0.60;;;;;;;18.52;56.49;100571.00;126162;1093;64280;-80
2021/08/02 10:47:38;;;;;;;5.23;0.70;;;;;;;18.64;55.26;100563.78;125995;1093;64134;-81
2021/08/02 10:50:08;;;;;;;2.83;0.50;;;;;;;18.73;54.81;100564.26;126034;1093;64307;-79
2021/08/02 10:52:35;;;;;;;2.50;0.80;;;;;;;18.74;54.38;100572.09;125707;1093;64220;-79
2021/08/02 10:55:14;;;;;;;1.67;0.50;;;;;;;18.83;53.86;100561.85;125463;1093;64169;-75
2021/08/02 10:57:41;;;;;;;2.57;0.70;;;;;;;18.97;53.86;100565.11;125304;1093;64227;-80
2021/08/02 11:00:20;;;;;;;2.87;1.00;;;;;;;19.11;54.15;100555.77;125030;1093;64198;-76
2021/08/02 11:02:52;;;;;;;5.53;0.77;;;;;;;19.23;53.69;100565.68;125384;1092;64252;-79
2021/08/02 11:05:22;;;;;;;1.57;0.60;;;;;;;19.37;53.39;100563.58;125067;1093;64220;-79
2021/08/02 11:07:50;;;;;;;3.27;0.90;;;;;;;19.49;53.26;100562.50;124943;1093;64415;-78
2021/08/02 11:10:17;;;;;;;4.57;1.87;;;;;;;19.62;52.95;100560.61;125022;1093;64199;-79
2021/08/02 11:12:46;;;;;;;1.67;0.87;;;;;;;19.62;51.36;100560.61;125387;1093;64344;-79
2021/08/02 11:15:16;;;;;;;1.83;0.53;;;;;;;19.73;49.74;100567.85;125438;1093;64200;-80
2021/08/02 11:17:54;;;;;;;2.37;0.60;;;;;;;19.75;49.93;100561.16;125290;1092;64368;-80
2021/08/02 11:20:24;;;;;;;1.97;0.47;;;;;;;19.86;48.30;100567.56;125134;1093;64291;-81
2021/08/02 11:22:56;;;;;;;1.03;0.60;;;;;;;19.92;48.71;100571.18;125436;1093;64195;-77
2021/08/02 11:25:37;;;;;;;1.67;0.60;;;;;;;20.06;48.18;100567.16;125152;1093;64195;-81
2021/08/02 11:28:07;;;;;;;4.43;0.77;;;;;;;20.29;47.80;100571.58;125590;1093;64285;-82
2021/08/02 11:30:35;;;;;;;5.03;0.90;;;;;;;20.59;47.79;100580.47;125463;1093;64221;-82